Barra Do Garcas, Barra do Garças Airport (SBBW)

NameBarra do Garças Airport
CityBarra Do Garcas
CountryBrazil
ICAOSBBW
IATABPG
Altitude350 m
CoordinatesGoogle Map
Live Air TrafficLiveATC.net
METARSBBW 131100Z 06004KT 9999 FEW006 SCT010 24/23 Q1012
2017-12-13 11:00:00 Wind: Northeast (60°) 2.06 m/s - Visibility: > 10000 m - Temperature: 24 °C - Dew point: 23 °C - Humidity: 94.2% - Pressure: 1012 hPa

Sorry, no flights used the airport in this database.